Tiempo atmosférico en la estación meteorológica de Valdepeñas, Ciudad Real (700 m.)



Fecha
DESCASC
Temp. máxima en grados centígrados (hora)
DESCASC
Temp. mínima en grados centígrados (hora)
DESCASC
Temp. media en grados centígrados
DESCASC
Racha de viento máxima en m/sg (hora)
DESCASC
Velocidad máxima media en intervalos de 10 minutos(hora)
DESCASC
Precipitaciones diarias en mm
DESCASC
Precipitaciones de 00:00 a 06:00 en mm
DESCASC
Precipitaciones de 06:00 a 12:00 en mm
DESCASC
Precipitaciones de 12:00 a 18:00 en mm
DESCASC
Precipitaciones de 18:00 a 24:00 en mm
DESCASC
24-09-2020 22.7 (17:00) 14.9 (08:10) 18.8 9.44 (15:20) 4.44 (14:40) 0.2 0.2 0 0 0
23-09-2020 25.9 (16:20) 16.9 (00:00) 21.4 9.72 (19:00) 4.72 (14:30) 0 0 0 0 0
22-09-2020 26.7 (16:50) 12.3 (00:00) 19.5 8.89 (16:40) 3.06 (17:50) 0 0 0 0 0
21-09-2020 24.9 (17:00) 12.9 (00:00) 18.9 6.39 (15:00) 2.22 (15:10) 0.2 0 0 0 0.2
20-09-2020 22.8 (16:20) 14.8 (00:00) 18.8 6.39 (12:20) 3.06 (12:10) 0.4 0 0.2 0 0.2
19-09-2020 20.8 (13:30) 14.8 (00:00) 17.8 8.89 (10:30) 4.44 (10:30) 4.8 3.4 1 0.2 0.2
18-09-2020 21.5 (15:50) 15.4 (00:00) 18.4 10 (16:30) 4.17 (06:30) 12.2 0 3 4.6 4.6
17-09-2020 28.2 (18:00) 18.9 (00:00) 23.6 11.11 (15:50) 5.56 (15:30) 3 0.8 0 0 2.2
16-09-2020 32.2 (16:20) 17.2 (00:00) 24.7 7.5 (23:59) 2.78 (22:20) 1.4 0 0 0 1.4
15-09-2020 31 (17:20) 18.3 (00:00) 24.6 9.17 (16:50) 2.78 (16:00) 0 0 0 0 0
14-09-2020 33.3 (15:50) 16.8 (00:00) 25 7.5 (15:30) 3.33 (16:50) 0 0 0 0 0
13-09-2020 34.2 (15:10) 18.6 (00:00) 26.4 8.61 (15:40) 3.33 (17:00) 0 0 0 0 0
12-09-2020 34.4 (16:40) 17 (00:00) 25.7 6.39 (23:20) 2.5 (21:50) 0 0 0 0 0
11-09-2020 32.3 (15:40) 15.5 (00:00) 23.9 5.83 (14:10) 2.22 (04:40) 0 0 0 0 0
10-09-2020 30.5 (16:00) 13.9 (00:00) 22.2 9.17 (17:00) 2.78 (17:50) 0 0 0 0 0
09-09-2020 29.1 (16:30) 14.9 (00:00) 22 5.83 (00:10) 3.06 (07:50) 0 0 0 0 0
08-09-2020 28.9 (16:30) 14.1 (00:00) 21.5 7.22 (23:00) 3.61 (23:10) 0 0 0 0 0
07-09-2020 28.5 (15:10) 17.6 (08:00) 23.1 9.17 (15:50) 3.33 (14:40) 0 0 0 0 0
06-09-2020 33.9 (17:00) 18.1 (00:00) 26 5.83 (00:50) 2.78 (01:00) 0 0 0 0 0
05-09-2020 33.7 (17:30) 16.3 (00:00) 25 6.39 (22:10) 2.78 (23:59) 0 0 0 0 0
04-09-2020 33 (17:30) 16.1 (00:00) 24.6 6.11 (23:10) 2.78 (23:10) 0 0 0 0 0
03-09-2020 32.5 (16:00) 15.5 (00:00) 24 7.78 (23:20) 2.78 (23:00) 0 0 0 0 0
02-09-2020 30.5 (17:00) 14.4 (00:00) 22.4 5.83 (16:20) 2.5 (15:00) 0 0 0 0 0
01-09-2020 29.1 (15:40) 12.5 (00:00) 20.8 6.94 (16:20) 3.06 (16:10) 0 0 0 0 0
31-08-2020 28.5 (16:10) 10.6 (00:00) 19.6 6.11 (00:10) 2.78 (06:30) 0 0 0 0 0
30-08-2020 24.4 (16:20) 12.2 (00:00) 18.3 7.78 (17:00) 2.78 (11:30) 0 0 0 0 0
29-08-2020 25 (16:50) 14.5 (00:00) 19.8 10.83 (11:10) 4.17 (13:00) 0 0 0 0 0
28-08-2020 33.3 (15:00) 21.4 (00:00) 27.3 10.28 (14:40) 3.89 (15:00) 0 0 0 0 0
27-08-2020 38.3 (17:00) 19.7 (00:00) 29 7.78 (20:10) 3.61 (19:40) 0 0 0 0 0
26-08-2020 38.4 (17:00) 19.9 (00:00) 29.2 6.94 (17:40) 2.22 (13:20) 0 0 0 0 0

Gráficas

Temp. máximas Temp. mínimas Temp. medias Precipitaciones Rachas de viento máximas Velocidades máximas media en intervalos de 10 minutos

Datos horarios

Fecha y hora oficial Temperatura (ºC) Velocidad del viento (km/h) Dirección del viento Racha (km/h) Dirección de racha Precipitación (mm) Presión (hPa) Tendencia (hPa) Humedad (%)
2020-09-24 23:00:00 18.5 9 Sur 16 Sur 0 938.5 1.4 74
2020-09-24 22:00:00 19.3 8 Sur 21 Sur 0 938.3 -- 70
2020-09-24 21:00:00 20.6 9 Sur 30 Sudoeste 0 937.6 -- 61
2020-09-24 20:00:00 21.6 11 Sudoeste 31 Sudoeste 0 937.1 -- 58
2020-09-24 19:00:00 22.1 12 Sudoeste 30 Sudoeste 0 936.7 -- 54
2020-09-24 18:00:00 22.6 13 Sudoeste 31 Sur 0 936.2 -- 53
2020-09-24 17:00:00 22.7 12 Sudoeste 29 Sur 0 936.4 -- 53
2020-09-24 16:00:00 22.3 14 Sur 34 Sur 0 936.7 -- 54
2020-09-24 15:00:00 21.9 15 Sur 31 Sur 0 937 -- 55
2020-09-24 14:00:00 21.6 11 Sur 28 Sur 0 937.3 -- 57
2020-09-24 13:00:00 21.4 10 Sur 23 Sur 0 937.4 -- 57
2020-09-24 12:00:00 20.7 6 Sudoeste 17 Sudoeste 0 937.6 -- 61
2020-09-24 11:00:00 18.5 7 Sur 16 Sur 0 937.3 -- 69
2020-09-24 10:00:00 17 6 Sur 10 Sur 0 936.7 -- 72
2020-09-24 09:00:00 15.5 0 Calma 8 Sudeste 0 936.6 -- 76
2020-09-24 08:00:00 15 4 Sudeste 8 Sudeste 0 936.3 -- 78
2020-09-24 07:00:00 15.1 3 Sudeste 6 Este 0 936 -- 77
2020-09-24 06:00:00 15.4 3 Sudeste 7 Sudoeste 0 936.1 -- 74
2020-09-24 05:00:00 15.9 0 Calma 7 Sudeste 0 936.1 -- 70
2020-09-24 04:00:00 16.6 3 Este 6 Este 0 936 -- 66
2020-09-24 03:00:00 17.3 4 Sur 8 Sudeste 0 936.5 -- 65
2020-09-24 02:00:00 18 4 Sudeste 10 Sudoeste 0 936.4 -- 62
2020-09-24 01:00:00 19.4 5 Sur 10 Sudoeste 0.2 936.5 -- 58
2020-09-24 00:00:00 19.8 4 Sur 13 Sur 0 936.5 -- 55
2020-09-23 23:00:00 19.8 5 Sur 9 Sur 0 936.6 -- 54
2020-09-23 22:00:00 20.4 3 Sudoeste 10 Sudoeste 0 935.9 -- 50
2020-09-23 21:00:00 21.6 3 Oeste 16 Sudoeste 0 935.3 -- 44
2020-09-23 20:00:00 23.2 5 Sudoeste 26 Sudoeste 0 934.5 -- 36
2020-09-23 19:00:00 24.4 9 Sudoeste 35 Sudoeste 0 934.1 -- 32
2020-09-23 18:00:00 24.8 7 Sudoeste 29 Sudoeste 0 933.7 -- 33
2020-09-23 17:00:00 25.5 11 Sudoeste 31 Sudoeste 0 933.8 -- 34
2020-09-23 16:00:00 25.5 12 Sur 31 Sur 0 933.9 -- 35
2020-09-23 15:00:00 24.8 9 Sudoeste 35 Sur 0 934.4 -- 37
2020-09-23 14:00:00 24.7 12 Sur 32 Sudeste 0 934.5 -- 37
2020-09-23 13:00:00 24.4 9 Sudoeste 23 Sur 0 934.8 -- 39
2020-09-23 12:00:00 23.3 9 Sur 19 Sur 0 935.2 -- 47
2020-09-23 11:00:00 21.3 10 Sur 18 Sur 0 935.3 -- 54
2020-09-23 10:00:00 18.7 7 Sudeste 15 Sudeste 0 935.1 -- 63
2020-09-23 09:00:00 17.4 3 Sudeste 10 Sur 0 935.1 -- 67
2020-09-23 08:00:00 17.2 0 Calma 9 Sudeste 0 934.8 -- 66
2020-09-23 07:00:00 17.5 4 Sudeste 10 Sudeste 0 934.3 -- 64
2020-09-23 06:00:00 17.6 3 Sudeste 9 Sudeste 0 934.5 -- 60
2020-09-23 05:00:00 17.9 4 Sudeste 8 Sudeste 0 934.8 -- 61
2020-09-23 04:00:00 18.5 4 Sudeste 6 Sudeste 0 934.6 -- 60
2020-09-23 03:00:00 18.9 2 Este 6 Sudeste 0 935.1 -- 58
2020-09-23 02:00:00 19.2 3 Sudeste 4 Sudeste 0 935.3 -- 57
2020-09-23 01:00:00 19.4 3 Sur 6 Sudeste 0 935.5 -- 57
2020-09-23 00:00:00 19.6 2 Sur 8 Sudeste 0 935.5 -- 55
2020-09-22 23:00:00 19.9 3 Sudeste 7 Sudeste 0 935.4 -- 53
2020-09-22 22:00:00 20.6 3 Sudeste 8 Oeste 0 935.3 -- 49
2020-09-22 21:00:00 21.9 2 Sudoeste 10 Oeste 0 934.6 -- 44
2020-09-22 20:00:00 23.6 4 Sudoeste 17 Oeste 0 934.1 -- 37
2020-09-22 19:00:00 25.2 5 Sudoeste 19 Sudoeste 0 933.8 -- 31
2020-09-22 18:00:00 25.9 6 Sudoeste 24 Sur 0 934 -- 29
2020-09-22 17:00:00 26.5 9 Sudoeste 32 Sudoeste 0 934.3 -- 29
2020-09-22 16:00:00 26.4 9 Sur 23 Sudoeste 0 934.9 -- 31
2020-09-22 15:00:00 25.5 5 Oeste 27 Sur 0 935.7 -- 32
2020-09-22 14:00:00 24.7 7 Sudoeste 23 Sudoeste 0 936.4 -- 33
2020-09-22 13:00:00 23.8 5 Sudoeste 17 Sudoeste 0 936.8 -- 35
2020-09-22 12:00:00 22.2 3 Oeste 12 Oeste 0 937.2 -- 40
2020-09-22 11:00:00 19.7 2 Sudoeste 8 Sur 0 937 -- 51
2020-09-22 10:00:00 16.7 3 Sur 6 Sur 0 936.9 -- 60
2020-09-22 09:00:00 12.9 0 Calma 4 Nordeste 0 936.7 -- 73
2020-09-22 08:00:00 12.3 3 Norte 6 Norte 0 936.4 -- 72
2020-09-22 07:00:00 12.8 3 Norte 6 Norte 0 936.2 -- 70
2020-09-22 06:00:00 13.5 3 Norte 6 Norte 0 936.3 -- 67
2020-09-22 05:00:00 14.3 0 Calma 6 Sudeste 0 936.6 -- 61
2020-09-22 04:00:00 14.8 3 Sudeste 7 Sur 0 936.9 -- 59
2020-09-22 03:00:00 15.5 4 Sur 8 Sudeste 0 937.1 -- 55
2020-09-22 02:00:00 15.8 4 Sudeste 6 Sudeste 0 937.5 -- 55
2020-09-22 01:00:00 16.1 3 Sudeste 5 Sudeste 0 937.7 -- 54
2020-09-22 00:00:00 16.9 3 Sudeste 8 Sudeste 0 937.7 -- 53
2020-09-21 23:00:00 17.8 0 Calma 8 Oeste 0 937.5 -- 46
2020-09-21 22:00:00 18.6 0 Calma 6 Sudoeste 0 937.2 -- 44
2020-09-21 21:00:00 20.5 0 Calma 8 Sudoeste 0 936.9 -- 39
2020-09-21 20:00:00 23 3 Sudoeste 14 Oeste 0.2 936.8 -- 30
2020-09-21 19:00:00 24.2 4 Oeste 16 Oeste 0 936.5 -- 26
2020-09-21 18:00:00 24.6 6 Oeste 22 Sudoeste 0 936.5 -- 24
2020-09-21 17:00:00 24.9 4 Sudoeste 17 Noroeste 0 936.8 -- 33
2020-09-21 16:00:00 23.5 4 Sudoeste 18 Sudoeste 0 937.2 -- 39
2020-09-21 15:00:00 23.7 6 Sudoeste 23 Sudoeste 0 937.8 -- 36
2020-09-21 14:00:00 22.3 5 Oeste 13 Oeste 0 938.3 -- 48
2020-09-21 13:00:00 21.5 4 Sudoeste 9 Sudoeste 0 938.6 -- 52
2020-09-21 12:00:00 19.8 2 Oeste 6 Sudoeste 0 939 -- 60
2020-09-21 11:00:00 17.7 2 Sudoeste 5 Oeste 0 939 -- 73
2020-09-21 10:00:00 15.3 2 Norte 5 Norte 0 938.7 -- 80
2020-09-21 09:00:00 13.5 2 Norte 5 Norte 0 938.5 -- 85
2020-09-21 08:00:00 13 0 Calma 5 Nordeste 0 938.1 -- 85
2020-09-21 07:00:00 13.1 2 Norte 5 Norte 0 937.8 -- 84
2020-09-21 06:00:00 13.5 3 Norte 5 Norte 0 937.9 -- 83
2020-09-21 05:00:00 14.1 0 Calma 5 Norte 0 937.9 -- 81
2020-09-21 04:00:00 14.7 2 Nordeste 5 Norte 0 938.1 -- 79
2020-09-21 03:00:00 15.3 3 Sudeste 7 Sudeste 0 938.4 -- 77
2020-09-21 02:00:00 15.8 3 Este 8 Este 0 938.6 -- 75
2020-09-21 01:00:00 16.5 4 Sudeste 6 Sudeste 0 938.8 -- 71
2020-09-21 00:00:00 17.1 2 Sudeste 6 Oeste 0 938.8 -- 69
2020-09-20 23:00:00 17.6 0 Calma 4 Sudoeste 0.2 938.9 -- 68
2020-09-20 22:00:00 18.7 2 Sur 6 Sur 0 938.6 -- 64
2020-09-20 21:00:00 19.6 3 Sur 5 Sur 0 938 -- 60
2020-09-20 20:00:00 21.3 0 Calma 12 Sudoeste 0 937.7 -- 53
2020-09-20 19:00:00 22.1 3 Sudoeste 13 Sudoeste 0 937.5 -- 48
2020-09-20 18:00:00 22.1 5 Oeste 17 Oeste 0 937.5 -- 49
2020-09-20 17:00:00 22.6 4 Sudoeste 17 Oeste 0 937.7 -- 48
2020-09-20 16:00:00 22.4 4 Oeste 17 Sur 0 938 -- 48
2020-09-20 15:00:00 21.7 4 Sudoeste 17 Oeste 0 938.6 -- 50
2020-09-20 14:00:00 21.2 6 Sudoeste 18 Sur 0 939 -- 53
2020-09-20 13:00:00 20.6 10 Sur 23 Sudeste 0 939.1 -- 54
2020-09-20 12:00:00 20.9 8 Sur 20 Sur 0 939.3 -- 59
2020-09-20 11:00:00 18.4 4 Sur 14 Sur 0 939.3 -- 73
2020-09-20 10:00:00 17 7 Sur 12 Sur 0.2 939.3 -- 83
2020-09-20 09:00:00 15.3 3 Sudeste 8 Sur 0 939.1 -- 89
2020-09-20 08:00:00 14.9 3 Sudeste 9 Sur 0 938.6 -- 89
2020-09-20 07:00:00 15.6 2 Sur 9 Sur 0 938.4 -- 89
2020-09-20 06:00:00 15.4 4 Sudeste 9 Sudeste 0 938.5 -- 89
2020-09-20 05:00:00 15.2 4 Sur 12 Sudeste 0 938.6 -- 88
2020-09-20 04:00:00 15.5 8 Sudeste 12 Sudeste 0 938.7 -- 87
2020-09-20 03:00:00 15.4 4 Sudeste 9 Sudeste 0 938.9 -- 86
2020-09-20 02:00:00 15.5 4 Sudeste 10 Sudeste 0 939.1 -- 86
2020-09-20 01:00:00 15.8 5 Sudeste 11 Sudeste 0 939 -- 85
2020-09-20 00:00:00 16.3 6 Sudeste 12 Sur 0 939.1 -- 84
2020-09-19 23:00:00 16.7 5 Sur 15 Sudeste 0 939 -- 82
2020-09-19 22:00:00 16.9 8 Sudeste 17 Sudeste 0 938.6 -- 81
2020-09-19 21:00:00 17.8 9 Sudeste 18 Sudeste 0.2 937.7 -- 76
2020-09-19 20:00:00 18.8 9 Sudeste 20 Sudeste 0 937.2 -- 70
2020-09-19 19:00:00 20.1 9 Sur 22 Sur 0 937.3 -- 63
2020-09-19 18:00:00 20 10 Sur 22 Sur 0 937.1 -- 63
2020-09-19 17:00:00 20.2 10 Sur 21 Sur 0 937.3 -- 63
2020-09-19 16:00:00 19.5 8 Sudoeste 23 Sur 0 937.6 -- 60
2020-09-19 15:00:00 19.1 10 Sur 31 Sur 0.2 937.9 -- 66
2020-09-19 14:00:00 20.4 13 Sur 29 Sur 0 937.9 -- 53
2020-09-19 13:00:00 19.9 12 Sur 32 Sudoeste 0 938 -- 56
2020-09-19 12:00:00 19.6 12 Sur 30 Sur 0.2 938.3 -- 59
2020-09-19 11:00:00 18.6 13 Sur 32 Sur 0 938 -- 65
2020-09-19 10:00:00 16.8 10 Sur 25 Sur 0.2 937.4 -- 80
2020-09-19 09:00:00 15.4 10 Sudeste 17 Sur 0.2 937.3 -- 88
2020-09-19 08:00:00 15 6 Sur 20 Sur 0.2 936.9 -- 86
2020-09-19 07:00:00 15.1 13 Sur 23 Sur 0.2 936.2 -- 87
2020-09-19 06:00:00 15.3 9 Sur 25 Sur 0.4 936.1 -- 86
2020-09-19 05:00:00 15.5 8 Sur 28 Sur 0.4 935.9 -- 83
2020-09-19 04:00:00 16.1 12 Sur 30 Sur 0.6 936 -- 77
2020-09-19 03:00:00 15.8 13 Sur 28 Sur 0.6 935.5 -- 79
2020-09-19 02:00:00 16.1 6 Sur 21 Sudeste 0.8 936.3 -- 79
2020-09-19 01:00:00 16.3 11 Sur 27 Sur 0.6 936.6 -- 79
2020-09-19 00:00:00 16.5 12 Sudeste 27 Sur 0.8 936.1 -- 81
2020-09-18 23:00:00 16.8 9 Sur 18 Sur 0.8 936.1 -- 85
2020-09-18 22:00:00 15.9 6 Este 15 Este 1 935.4 -- 88
2020-09-18 21:00:00 15.9 5 Este 15 Este 1 934.7 -- 88
2020-09-18 20:00:00 16.3 3 Nordeste 6 Este 0.8 934.5 -- 87
2020-09-18 19:00:00 16.2 2 Oeste 8 Sur 0.2 934.7 -- 88
2020-09-18 18:00:00 15.8 0 Calma 17 Oeste 1 934.3 -- 87
2020-09-18 17:00:00 15.8 6 Oeste 36 Oeste 1 934 -- 77
2020-09-18 16:00:00 21.3 6 Norte 21 Norte 0.2 932.3 -- 71
2020-09-18 15:00:00 20.1 5 Noroeste 18 Nordeste 0.4 933 -- 81
2020-09-18 14:00:00 20.2 8 Norte 18 Norte 1 933.8 -- 71
2020-09-18 13:00:00 16.3 8 Nordeste 33 Sudoeste 1 934.4 -- 86
2020-09-18 12:00:00 19.4 4 Este 25 Sur 2.4 934.2 -- 69
2020-09-18 11:00:00 17.9 12 Este 25 Nordeste 0.6 934 -- 73
2020-09-18 10:00:00 18.7 6 Sudeste 17 Sudeste 0 933.9 -- 66
2020-09-18 09:00:00 17.9 6 Sudeste 21 Sur 0 933.4 -- 68
2020-09-18 08:00:00 17.8 10 Sudeste 27 Sudeste 0 933 -- 68
2020-09-18 07:00:00 18 12 Sudeste 33 Sudeste 0 932.3 -- 65
2020-09-18 06:00:00 18 11 Sudeste 31 Sudeste 0 932.6 -- 65
2020-09-18 05:00:00 19.6 13 Sudeste 28 Sudeste 0 933.3 -- 55
2020-09-18 04:00:00 19.9 8 Sudeste 30 Sudeste 0 933.4 -- 54
2020-09-18 03:00:00 20.1 7 Sudeste 22 Este 0 933.7 -- 55
2020-09-18 02:00:00 20.6 7 Sudeste 23 Sur 0 933.8 -- 52
2020-09-18 01:00:00 20.9 12 Sudeste 28 Sudeste 0 934.1 -- 52
2020-09-18 00:00:00 21.2 12 Sur 28 Sur 0 934.6 -- 60
2020-09-17 23:00:00 20.9 5 Sudeste 20 Nordeste 0 934.3 -- 66
2020-09-17 22:00:00 20.4 6 Nordeste 13 Este 0 933.9 -- 71
2020-09-17 21:00:00 20.4 3 Sudeste 11 Este 0 933.5 -- 78
2020-09-17 20:00:00 20.7 4 Este 33 Sudeste 1.2 933.5 -- 78
2020-09-17 19:00:00 25.7 15 Sudeste 37 Sudeste 1 933.6 -- 50
2020-09-17 18:00:00 28.1 12 Sur 30 Sur 0 932.8 -- 31
2020-09-17 17:00:00 27.3 15 Sur 33 Sudeste 0 933.7 -- 34
2020-09-17 16:00:00 27.5 16 Sur 40 Sur 0 934.2 -- 34
2020-09-17 15:00:00 27.2 17 Sur 35 Sudeste 0 934.8 -- 35
2020-09-17 14:00:00 25.8 11 Sur 26 Sur 0 935.4 -- 40
2020-09-17 13:00:00 24 9 Sudeste 18 Sur 0 935.9 -- 46
2020-09-17 12:00:00 23.1 10 Sudeste 23 Sur 0 936.1 -- 51
2020-09-17 11:00:00 22.7 9 Sur 18 Sur 0 936 -- 55
2020-09-17 10:00:00 20.7 2 Este 6 Sudeste 0 935.8 -- 65
2020-09-17 09:00:00 19.3 2 Norte 10 Sudeste 0 935.5 -- 73
2020-09-17 08:00:00 19 5 Sudeste 8 Sudeste 0 935.2 -- 70
2020-09-17 07:00:00 19.2 0 Calma 6 Nordeste 0 934.9 -- 77
2020-09-17 06:00:00 19.5 3 Norte 8 Este 0 935.1 -- 77
2020-09-17 05:00:00 19.7 3 Este 9 Nordeste 0 935.2 -- 73
2020-09-17 04:00:00 19.5 5 Este 17 Nordeste 0 935.9 -- 79
2020-09-17 03:00:00 19.3 8 Nordeste 21 Nordeste 0.2 936.7 -- 77
2020-09-17 02:00:00 19.4 8 Nordeste 15 Norte 0.4 937.1 -- 79
2020-09-17 01:00:00 21 3 Oeste 14 Sur 0.2 937.7 -- 68
2020-09-17 00:00:00 23.2 7 Sudoeste 27 Sur 1.4 937.4 -- 53
2020-09-16 23:00:00 26.5 5 Sur 18 Sudoeste 0 936.6 -- 29
2020-09-16 22:00:00 26.9 3 Sur 10 Sudoeste 0 935.9 -- 30
2020-09-16 21:00:00 28.1 3 Sudoeste 11 Sudoeste 0 935.1 -- 26
2020-09-16 20:00:00 29.2 2 Sudoeste 13 Sudoeste 0 934.9 -- 20
2020-09-16 19:00:00 30.5 6 Sur 18 Sur 0 934.9 -- 19
2020-09-16 18:00:00 30.9 8 Sur 18 Sur 0 935.1 -- 19
2020-09-16 17:00:00 30.9 5 Este 22 Sudeste 0 935.5 -- 20
2020-09-16 16:00:00 31.9 7 Sudeste 22 Sudeste 0 936.1 -- 20
2020-09-16 15:00:00 31.1 6 Nordeste 17 Este 0 936.8 -- 23
2020-09-16 14:00:00 31.3 5 Nordeste 17 Norte 0 937.7 -- 26
2020-09-16 13:00:00 29.8 4 Este 13 Este 0 938.5 -- 28
2020-09-16 12:00:00 28.6 3 Este 9 Nordeste 0 939.1 -- 30
2020-09-16 11:00:00 26.2 4 Sur 9 Sudeste 0 939.3 -- 36
2020-09-16 10:00:00 22.3 3 Norte 10 Norte 0 939.5 -- 46
2020-09-16 09:00:00 18.3 0 Calma 13 Nordeste 0 939.6 -- 54
2020-09-16 08:00:00 17.3 2 Nordeste 8 Nordeste 0 939.5 -- 56
2020-09-16 07:00:00 18.1 3 Norte 6 Norte 0 939.4 -- 55
2020-09-16 06:00:00 18.8 3 Norte 6 Norte 0 939.4 -- 51
2020-09-16 05:00:00 19.9 2 Norte 6 Este 0 939.5 -- 48
2020-09-16 04:00:00 20.7 4 Sudeste 8 Sudeste 0 939.6 -- 46
2020-09-16 03:00:00 21.1 4 Sudeste 8 Sudeste 0 940 -- 45
2020-09-16 02:00:00 21.5 4 Sudeste 5 Sur 0 940.2 -- 41
2020-09-16 01:00:00 22.3 3 Sudeste 8 Sur 0 940.1 -- 38
2020-09-16 00:00:00 23.2 4 Sudeste 8 Sur 0 940.2 -- 33
2020-09-15 23:00:00 23.9 2 Sudeste 5 Este 0 940 -- 36
2020-09-15 22:00:00 25.1 2 Sur 5 Noroeste 0 939.5 -- 30
2020-09-15 21:00:00 26.4 3 Sur 8 Sudoeste 0 939.1 -- 28
2020-09-15 20:00:00 29 5 Sur 19 Sur 0 938.7 -- 23
2020-09-15 19:00:00 30.2 9 Sur 20 Sudoeste 0 938.7 -- 19
2020-09-15 18:00:00 30.2 9 Sur 23 Sudoeste 0 938.7 -- 24
2020-09-15 17:00:00 30.1 8 Sur 33 Sudeste 0 939.1 -- 24
2020-09-15 16:00:00 30.7 10 Sur 21 Sudoeste 0 939.5 -- 26
2020-09-15 15:00:00 29.6 6 Sudeste 16 Nordeste 0 940.4 -- 32
2020-09-15 14:00:00 28.1 4 Oeste 15 Este 0 941 -- 39
2020-09-15 13:00:00 27.8 6 Nordeste 16 Este 0 941.7 -- 41
2020-09-15 12:00:00 25.8 3 Oeste 9 Noroeste 0 942.2 -- 48
2020-09-15 11:00:00 24.3 2 Oeste 9 Sudoeste 0 942.4 -- 54
2020-09-15 10:00:00 22.3 4 Sudeste 9 Sur 0 942.2 -- 57
2020-09-15 09:00:00 19 3 Norte 13 Nordeste 0 941.8 -- 60
2020-09-15 08:00:00 18.6 3 Norte 10 Nordeste 0 941.3 -- 61
2020-09-15 07:00:00 19.9 0 Calma 5 Sudeste 0 941 -- 60
2020-09-15 06:00:00 20.2 2 Sudeste 9 Sudeste 0 941 -- 50
2020-09-15 05:00:00 21 5 Sudeste 10 Sur 0 940.9 -- 46
2020-09-15 04:00:00 21.5 3 Sudeste 8 Sudeste 0 941.1 -- 45
2020-09-15 03:00:00 21.7 4 Sudeste 14 Sudeste 0 941.1 -- 45
2020-09-15 02:00:00 21.5 4 Sudeste 9 Sudeste 0 941.2 -- 43
2020-09-15 01:00:00 22.4 4 Sudeste 9 Sudeste 0 940.6 -- 40
2020-09-15 00:00:00 23.5 3 Sur 11 Sur 0 940.4 -- 36
2020-09-14 23:00:00 24.4 0 Calma 8 Este 0 940.3 -- 33
2020-09-14 22:00:00 25.7 3 Sudeste 10 Sudeste 0 939.4 -- 30
2020-09-14 21:00:00 26.7 2 Nordeste 10 Sudeste 0 939.2 -- 27
2020-09-14 20:00:00 28.7 6 Este 14 Sudeste 0 938.5 -- 24
2020-09-14 19:00:00 28.7 4 Nordeste 22 Sur 0 938.6 -- 24
2020-09-14 18:00:00 30.1 10 Sur 24 Sur 0 939.7 -- 20
2020-09-14 17:00:00 31.4 10 Sur 24 Sudeste 0 939.4 -- 18
2020-09-14 16:00:00 32.8 9 Sur 27 Nordeste 0 939.4 -- 15
2020-09-14 15:00:00 32.1 3 Sur 21 Este 0 940.2 -- 15
2020-09-14 14:00:00 31.4 7 Sudeste 21 Sudeste 0 940.7 -- 16
2020-09-14 13:00:00 30.6 6 Sudeste 17 Sur 0 941.4 -- 17
2020-09-14 12:00:00 27.7 5 Sudeste 13 Sudeste 0 941.7 -- 22
2020-09-14 11:00:00 25.3 2 Oeste 11 Nordeste 0 941.7 -- 30
2020-09-14 10:00:00 21.9 4 Nordeste 11 Norte 0 941.5 -- 36
2020-09-14 09:00:00 17.6 2 Sudeste 9 Nordeste 0 941.5 -- 47
2020-09-14 08:00:00 16.8 6 Nordeste 15 Nordeste 0 940.9 -- 49
2020-09-14 07:00:00 17.3 8 Nordeste 17 Nordeste 0 940.6 -- 49
2020-09-14 06:00:00 17.9 3 Norte 13 Nordeste 0 940.6 -- 50
2020-09-14 05:00:00 18.6 3 Norte 12 Norte 0 940.8 -- 48
2020-09-14 04:00:00 20.9 0 Calma 15 Este 0 941.1 -- 46
2020-09-14 03:00:00 21.3 4 Nordeste 10 Sudeste 0 941.5 -- 47
2020-09-14 02:00:00 21.8 3 Sur 11 Nordeste 0 941.8 -- 45
2020-09-14 01:00:00 22.9 5 Nordeste 15 Nordeste 0 941.5 -- 42
2020-09-14 00:00:00 23.9 7 Nordeste 17 Nordeste 0 941.6 -- 39
2020-09-13 23:00:00 25 6 Nordeste 19 Nordeste 0 941.4 -- 34
2020-09-13 22:00:00 26.5 8 Nordeste 20 Este 0 940.9 -- 29
2020-09-13 21:00:00 28 9 Nordeste 23 Nordeste 0 940.2 -- 23
2020-09-13 20:00:00 29.5 9 Nordeste 24 Nordeste 0 939.7 -- 21
2020-09-13 19:00:00 31 8 Nordeste 26 Este 0 939.5 -- 18
2020-09-13 18:00:00 32.2 10 Nordeste 24 Nordeste 0 939.4 -- 15
2020-09-13 17:00:00 33.6 12 Nordeste 29 Este 0 939.7 -- 14
2020-09-13 16:00:00 33.5 11 Nordeste 31 Este 0 940.1 -- 14
2020-09-13 15:00:00 34 7 Nordeste 26 Nordeste 0 940.4 -- 14
2020-09-13 14:00:00 33.4 8 Este 25 Este 0 940.7 -- 13
2020-09-13 13:00:00 31.5 9 Este 19 Este 0 941 -- 14
2020-09-13 12:00:00 30.8 9 Este 24 Este 0 941.5 -- 14
2020-09-13 11:00:00 28.7 7 Nordeste 19 Este 0 941.4 -- 20
2020-09-13 10:00:00 23.8 8 Nordeste 18 Nordeste 0 941.3 -- 30
2020-09-13 09:00:00 19.8 9 Nordeste 17 Nordeste 0 941 -- 39
2020-09-13 08:00:00 19.6 6 Nordeste 13 Nordeste 0 940.7 -- 42
2020-09-13 07:00:00 18.9 2 Nordeste 11 Nordeste 0 940.3 -- 45
2020-09-13 06:00:00 19.7 4 Norte 11 Este 0 939.9 -- 43
2020-09-13 05:00:00 21.8 2 Norte 9 Sudeste 0 939.5 -- 37
2020-09-13 04:00:00 22.3 0 Calma 8 Este 0 939.3 -- 36
2020-09-13 03:00:00 23.6 4 Este 16 Este 0 939.4 -- 33
2020-09-13 02:00:00 23.7 7 Este 14 Este 0 939.6 -- 34
2020-09-13 01:00:00 24.3 6 Nordeste 21 Nordeste 0 939.5 -- 33
2020-09-13 00:00:00 24.8 8 Nordeste 23 Nordeste 0 939.1 -- 33
2020-09-12 23:00:00 25.8 8 Nordeste 22 Nordeste 0 938.8 -- 31
2020-09-12 22:00:00 27.7 9 Nordeste 23 Nordeste 0 937.8 -- 26
2020-09-12 21:00:00 29.7 6 Norte 17 Noroeste 0 936.9 -- 18
2020-09-12 20:00:00 31.4 7 Norte 19 Noroeste 0 936.7 -- 17
2020-09-12 19:00:00 32.8 4 Norte 15 Nordeste 0 936.5 -- 14
2020-09-12 18:00:00 33 5 Nordeste 16 Norte 0 936.3 -- 14
2020-09-12 17:00:00 33.9 6 Nordeste 15 Norte 0 936.4 -- 14
2020-09-12 16:00:00 33.2 6 Norte 17 Norte 0 936.8 -- 14
2020-09-12 15:00:00 34.1 3 Este 13 Sur 0 937 -- 14
2020-09-12 14:00:00 32.7 5 Norte 13 Norte 0 937.4 -- 16
2020-09-12 13:00:00 31.5 2 Oeste 8 Sur 0 937.7 -- 18
2020-09-12 12:00:00 29.9 3 Noroeste 7 Sur 0 937.8 -- 21
2020-09-12 11:00:00 27.1 2 Oeste 5 Oeste 0 937.7 -- 25
2020-09-12 10:00:00 22.8 0 Calma 11 Nordeste 0 937.3 -- 33
2020-09-12 09:00:00 17.9 0 Calma 9 Nordeste 0 937.1 -- 44
2020-09-12 08:00:00 17 5 Nordeste 12 Nordeste 0 936.5 -- 46
2020-09-12 07:00:00 17 5 Nordeste 15 Nordeste 0 935.9 -- 45
2020-09-12 06:00:00 18.4 6 Nordeste 14 Nordeste 0 935.5 -- 43
2020-09-12 05:00:00 18.1 4 Norte 12 Norte 0 935.5 -- 41
2020-09-12 04:00:00 19.4 3 Norte 6 Norte 0 935.3 -- 37
2020-09-12 03:00:00 20.1 0 Calma 11 Sudeste 0 935.5 -- 33
2020-09-12 02:00:00 21.4 0 Calma 8 Nordeste 0 935.5 -- 29
2020-09-12 01:00:00 22 0 Calma 12 Nordeste 0 935.4 -- 28
2020-09-12 00:00:00 24.5 7 Nordeste 16 Este 0 935.2 -- 25
2020-09-11 23:00:00 26 7 Este 15 Nordeste 0 934.8 -- 21
2020-09-11 22:00:00 26.6 5 Nordeste 10 Nordeste 0 934.5 -- 20
2020-09-11 21:00:00 28.2 4 Norte 12 Noroeste 0 933.9 -- 18
2020-09-11 20:00:00 29.5 2 Noroeste 12 Noroeste 0 933.6 -- 17
2020-09-11 19:00:00 31.1 6 Oeste 14 Noroeste 0 933.5 -- 14
2020-09-11 18:00:00 31.4 6 Noroeste 19 Norte 0 933.7 -- 14
2020-09-11 17:00:00 31.9 5 Norte 13 Norte 0 934 -- 14
2020-09-11 16:00:00 31.5 4 Oeste 15 Sur 0 934.4 -- 14
2020-09-11 15:00:00 31.3 6 Oeste 21 Sur 0 934.9 -- 15
2020-09-11 14:00:00 30.8 3 Sudoeste 15 Sur 0 935.4 -- 16
2020-09-11 13:00:00 30.6 3 Nordeste 12 Nordeste 0 935.8 -- 18
2020-09-11 12:00:00 29.4 4 Nordeste 11 Sur 0 936.2 -- 20
2020-09-11 11:00:00 26.7 3 Sur 9 Sur 0 936.3 -- 28
2020-09-11 10:00:00 21.2 0 Calma 6 Nordeste 0 936 -- 35
2020-09-11 09:00:00 16.9 0 Calma 9 Nordeste 0 935.8 -- 44
2020-09-11 08:00:00 15.6 3 Sudoeste 14 Sur 0 935.5 -- 44
2020-09-11 07:00:00 15.9 5 Nordeste 17 Sur 0 935.2 -- 46
2020-09-11 06:00:00 16.4 0 Calma 9 Sudeste 0 935.1 -- 40
2020-09-11 05:00:00 17.8 4 Norte 14 Nordeste 0 935.4 -- 36
2020-09-11 04:00:00 17.9 3 Sudeste 10 Nordeste 0 935.5 -- 35
2020-09-11 03:00:00 19 3 Norte 17 Norte 0 935.7 -- 33
2020-09-11 02:00:00 19.4 4 Nordeste 9 Nordeste 0 936.1 -- 32
2020-09-11 01:00:00 20.3 2 Norte 12 Sudeste 0 936.4 -- 31
2020-09-11 00:00:00 20.9 4 Sudeste 8 Nordeste 0 936.3 -- 29
2020-09-10 23:00:00 23.1 3 Nordeste 11 Nordeste 0 936.5 -- 26
2020-09-10 22:00:00 24.2 5 Nordeste 10 Norte 0 936.2 -- 24
2020-09-10 21:00:00 26 4 Nordeste 13 Norte 0 935.8 -- 21
2020-09-10 20:00:00 28.2 5 Norte 19 Noroeste 0 935.7 -- 19
2020-09-10 19:00:00 29.1 7 Norte 22 Norte 0 935.9 -- 18
2020-09-10 18:00:00 29.4 6 Norte 28 Noroeste 0 936.3 -- 17
2020-09-10 17:00:00 30.4 9 Norte 33 Norte 0 936.6 -- 16
2020-09-10 16:00:00 30.5 8 Noroeste 28 Noroeste 0 937.2 -- 14
2020-09-10 15:00:00 29.7 7 Oeste 21 Noroeste 0 937.6 -- 16
2020-09-10 14:00:00 29.7 6 Oeste 16 Oeste 0 938.2 -- 18
2020-09-10 13:00:00 28.9 4 Sudoeste 13 Oeste 0 938.9 -- 18
2020-09-10 12:00:00 27.8 3 Oeste 9 Sudoeste 0 939.5 -- 22
2020-09-10 11:00:00 25.4 3 Sur 7 Sur 0 939.8 -- 28
2020-09-10 10:00:00 20.7 2 Norte 9 Norte 0 939.5 -- 34
2020-09-10 09:00:00 15.3 0 Calma 7 Norte 0 939.4 -- 46
2020-09-10 08:00:00 13.9 2 Norte 6 Norte 0 939.1 -- 48
2020-09-10 07:00:00 14.4 3 Sur 5 Norte 0 938.8 -- 47
2020-09-10 06:00:00 14.8 2 Norte 7 Norte 0 938.7 -- 46
2020-09-10 05:00:00 15.8 3 Norte 5 Norte 0 938.8 -- 44
2020-09-10 04:00:00 16.1 0 Calma 6 Norte 0 939.2 -- 43
2020-09-10 03:00:00 17.4 4 Norte 7 Norte 0 939.4 -- 40
2020-09-10 02:00:00 18 0 Calma 5 Norte 0 939.8 -- 36
2020-09-10 01:00:00 19.2 3 Norte 5 Norte 0 939.9 -- 34
2020-09-10 00:00:00 20.1 3 Sur 4 Sur 0 939.9 -- 32
2020-09-09 23:00:00 22.2 2 Sudeste 9 Nordeste 0 939.8 -- 28
2020-09-09 22:00:00 23.6 4 Nordeste 11 Norte 0 939.6 -- 26
2020-09-09 21:00:00 25.3 4 Norte 18 Noroeste 0 939.2 -- 23
2020-09-09 20:00:00 26.8 8 Norte 19 Noroeste 0 938.9 -- 22
2020-09-09 19:00:00 27.7 7 Noroeste 19 Noroeste 0 938.6 -- 21
2020-09-09 18:00:00 27.9 6 Norte 18 Norte 0 938.7 -- 21
2020-09-09 17:00:00 29.1 5 Norte 16 Norte 0 938.9 -- 19
2020-09-09 16:00:00 28.6 4 Sudoeste 17 Norte 0 939.1 -- 20
2020-09-09 15:00:00 28.1 4 Noroeste 17 Sur 0 939.6 -- 22
2020-09-09 14:00:00 27.5 4 Norte 19 Norte 0 940.2 -- 21
2020-09-09 13:00:00 26.5 7 Norte 17 Norte 0 940.9 -- 23
2020-09-09 12:00:00 24.9 4 Norte 12 Norte 0 941.5 -- 36
2020-09-09 11:00:00 23 4 Norte 10 Nordeste 0 941.6 -- 40
2020-09-09 10:00:00 20.1 5 Nordeste 13 Norte 0 941.3 -- 45
2020-09-09 09:00:00 16.2 7 Nordeste 16 Nordeste 0 941 -- 56
2020-09-09 08:00:00 14.9 10 Nordeste 18 Nordeste 0 940.6 -- 63
2020-09-09 07:00:00 15.7 5 Nordeste 15 Nordeste 0 940.4 -- 60
2020-09-09 06:00:00 15.7 8 Nordeste 19 Nordeste 0 940.2 -- 61
2020-09-09 05:00:00 16.1 9 Nordeste 18 Nordeste 0 940.2 -- 58
2020-09-09 04:00:00 17.1 2 Nordeste 12 Nordeste 0 940.2 -- 55
2020-09-09 03:00:00 18.4 7 Nordeste 14 Nordeste 0 939.9 -- 53
2020-09-09 02:00:00 19.2 3 Nordeste 14 Este 0 940.1 -- 49
2020-09-09 01:00:00 20.2 7 Este 21 Este 0 940.3 -- 45
2020-09-09 00:00:00 20.5 10 Nordeste 24 Este 0 940.5 -- 42
2020-09-08 23:00:00 21.6 12 Nordeste 26 Nordeste 0 940.1 -- 37
2020-09-08 22:00:00 23 9 Nordeste 24 Nordeste 0 939.5 -- 30
2020-09-08 21:00:00 24.5 10 Nordeste 23 Nordeste 0 938.7 -- 26
2020-09-08 20:00:00 26.9 2 Norte 9 Noroeste 0 938.2 -- 22
2020-09-08 19:00:00 27.5 5 Norte 12 Norte 0 938 -- 21
2020-09-08 18:00:00 27.6 5 Noroeste 17 Nordeste 0 938.2 -- 22
2020-09-08 17:00:00 28.8 6 Norte 16 Sudeste 0 938.3 -- 22
2020-09-08 16:00:00 28.3 5 Sudoeste 19 Sudoeste 0 938.6 -- 23
2020-09-08 15:00:00 27.2 4 Noroeste 14 Nordeste 0 939.2 -- 26
2020-09-08 14:00:00 27.4 3 Nordeste 15 Nordeste 0 939.6 -- 28
2020-09-08 13:00:00 25 4 Sudoeste 13 Norte 0 940 -- 37
2020-09-08 12:00:00 24.7 3 Norte 13 Este 0 940.4 -- 38
2020-09-08 11:00:00 22.8 6 Nordeste 17 Norte 0 940.6 -- 45
2020-09-08 10:00:00 18.7 6 Nordeste 20 Nordeste 0 940.5 -- 56
2020-09-08 09:00:00 15.4 5 Norte 12 Norte 0 940.2 -- 65
2020-09-08 08:00:00 14.3 4 Norte 9 Norte 0 939.8 -- 71
2020-09-08 07:00:00 14.3 2 Norte 13 Nordeste 0 939.4 -- 71
2020-09-08 06:00:00 15 6 Nordeste 15 Nordeste 0 938.9 -- 70
2020-09-08 05:00:00 15.8 5 Norte 15 Este 0 938.9 -- 68
2020-09-08 04:00:00 16.1 6 Nordeste 18 Nordeste 0 938.9 -- 67
2020-09-08 03:00:00 16.8 6 Norte 17 Norte 0 938.8 -- 64
2020-09-08 02:00:00 17.6 9 Nordeste 18 Nordeste 0 938.9 -- 59
2020-09-08 01:00:00 18.6 6 Nordeste 13 Nordeste 0 938.8 -- 38
2020-09-08 00:00:00 21.4 5 Noroeste 19 Norte 0 938.8 -- 20
2020-09-07 23:00:00 22.2 6 Norte 21 Norte 0 938.8 -- 18
2020-09-07 22:00:00 23.3 9 Norte 22 Norte 0 938.1 -- 17
2020-09-07 21:00:00 24.3 6 Norte 23 Norte 0 937.7 -- 15
2020-09-07 20:00:00 26.2 10 Norte 27 Norte 0 937.2 -- 14
2020-09-07 19:00:00 27 9 Norte 28 Noroeste 0 937 -- 17
2020-09-07 18:00:00 27.3 10 Noroeste 24 Noroeste 0 936.9 -- 19
2020-09-07 17:00:00 27.6 10 Noroeste 28 Noroeste 0 936.9 -- 19
2020-09-07 16:00:00 27.6 9 Noroeste 33 Norte 0 937.2 -- 19
2020-09-07 15:00:00 28.4 10 Norte 27 Norte 0 937.4 -- 18
2020-09-07 14:00:00 27 9 Noroeste 27 Noroeste 0 937.5 -- 22
2020-09-07 13:00:00 26.5 9 Norte 23 Norte 0 937.8 -- 28
2020-09-07 12:00:00 24.7 11 Noroeste 23 Noroeste 0 938 -- 36
2020-09-07 11:00:00 22.4 6 Norte 20 Noroeste 0 937.9 -- 47
2020-09-07 10:00:00 19.7 7 Norte 17 Noroeste 0 937.2 -- 55
2020-09-07 09:00:00 18.1 6 Norte 15 Norte 0 936.8 -- 53
2020-09-07 08:00:00 17.6 2 Norte 7 Norte 0 936.2 -- 43
2020-09-07 07:00:00 18.1 0 Calma 4 Sudeste 0 935.7 -- 41
2020-09-07 06:00:00 19.2 0 Calma 7 Sudoeste 0 935.4 -- 38
2020-09-07 05:00:00 19.4 3 Sudeste 7 Sudoeste 0 935.3 -- 38
2020-09-07 04:00:00 20.6 2 Sur 9 Nordeste 0 935.2 -- 35
2020-09-07 03:00:00 21.8 4 Nordeste 12 Nordeste 0 935.3 -- 33
2020-09-07 02:00:00 22.9 2 Norte 10 Norte 0 935.5 -- 30
2020-09-07 01:00:00 24.1 3 Nordeste 13 Nordeste 0 935.4 -- 28
2020-09-07 00:00:00 24.9 3 Este 14 Este 0 935.5 -- 26
2020-09-06 23:00:00 26.8 7 Nordeste 18 Nordeste 0 935 -- 23
2020-09-06 22:00:00 27.9 0 Calma 9 Noroeste 0 934.8 -- 20
2020-09-06 21:00:00 30 4 Noroeste 16 Noroeste 0 934.2 -- 17
2020-09-06 20:00:00 31.9 5 Oeste 18 Noroeste 0 934 -- 15
2020-09-06 19:00:00 32.4 6 Noroeste 20 Noroeste 0 934 -- 16
2020-09-06 18:00:00 32.8 6 Oeste 17 Oeste 0 934.2 -- 16
2020-09-06 17:00:00 33.8 6 Sudoeste 17 Sur 0 934.6 -- 15
2020-09-06 16:00:00 33.5 6 Noroeste 16 Noroeste 0 935 -- 16
2020-09-06 15:00:00 33.3 7 Sur 14 Sur 0 935.6 -- 17
2020-09-06 14:00:00 31.7 3 Oeste 13 Sudeste 0 936.1 -- 22
2020-09-06 13:00:00 31 4 Nordeste 13 Sudeste 0 936.6 -- 24
2020-09-06 12:00:00 29 4 Sudoeste 11 Sur 0 937 -- 30
2020-09-06 11:00:00 28 3 Este 10 Sudeste 0 937 -- 34
2020-09-06 10:00:00 24 3 Este 12 Nordeste 0 936.9 -- 45
2020-09-06 09:00:00 19.6 6 Nordeste 14 Norte 0 936.6 -- 52
2020-09-06 08:00:00 18.1 2 Norte 7 Norte 0 936.4 -- 54
2020-09-06 07:00:00 20 3 Sudeste 11 Este 0 936 -- 51
2020-09-06 06:00:00 19.4 2 Nordeste 10 Nordeste 0 936.1 -- 50
2020-09-06 05:00:00 20.9 3 Nordeste 15 Este 0 936.3 -- 45
2020-09-06 04:00:00 21.8 8 Nordeste 20 Nordeste 0 936.3 -- 41
2020-09-06 03:00:00 21.9 6 Nordeste 19 Nordeste 0 936.7 -- 40
2020-09-06 02:00:00 21.9 8 Nordeste 19 Nordeste 0 936.9 -- 38
2020-09-06 01:00:00 23.3 10 Nordeste 21 Nordeste 0 936.9 -- 33
2020-09-06 00:00:00 24 10 Nordeste 21 Nordeste 0 936.8 -- 30
2020-09-05 23:00:00 25.8 6 Nordeste 23 Este 0 936.7 -- 27
2020-09-05 22:00:00 27.5 7 Nordeste 16 Nordeste 0 936.5 -- 23
2020-09-05 21:00:00 29.6 4 Norte 15 Norte 0 935.8 -- 19
2020-09-05 20:00:00 31.7 4 Oeste 13 Noroeste 0 935.6 -- 14
2020-09-05 19:00:00 32.5 5 Noroeste 12 Norte 0 935.9 -- 13
2020-09-05 18:00:00 32.4 3 Sudeste 13 Sudeste 0 936.3 -- 14
2020-09-05 17:00:00 33 5 Oeste 15 Oeste 0 936.7 -- 13
2020-09-05 16:00:00 32.9 5 Noroeste 16 Sudoeste 0 937.4 -- 14
2020-09-05 15:00:00 31.9 4 Norte 15 Norte 0 938.2 -- 14
2020-09-05 14:00:00 31.7 4 Norte 14 Nordeste 0 938.6 -- 17
2020-09-05 13:00:00 29.7 3 Noroeste 12 Oeste 0 939.2 -- 22
2020-09-05 12:00:00 27.4 3 Sur 12 Oeste 0 939.9 -- 27
2020-09-05 11:00:00 25.4 3 Oeste 9 Sur 0 940 -- 30
2020-09-05 10:00:00 22.7 2 Sur 8 Nordeste 0 940 -- 39
2020-09-05 09:00:00 18.5 4 Norte 9 Norte 0 939.8 -- 56
2020-09-05 08:00:00 16.4 3 Norte 7 Sudeste 0 939.6 -- 59
2020-09-05 07:00:00 16.8 2 Sudeste 8 Norte 0 939.4 -- 58
2020-09-05 06:00:00 17.3 2 Nordeste 10 Este 0 939.3 -- 56
2020-09-05 05:00:00 18.1 2 Norte 13 Nordeste 0 939.5 -- 54
2020-09-05 04:00:00 20.4 5 Este 10 Este 0 939.6 -- 51
2020-09-05 03:00:00 19.1 3 Norte 12 Nordeste 0 939.8 -- 48
2020-09-05 02:00:00 20.4 3 Norte 11 Norte 0 940.1 -- 43
2020-09-05 01:00:00 20.7 6 Nordeste 17 Nordeste 0 940.3 -- 42
2020-09-05 00:00:00 22.1 9 Nordeste 22 Nordeste 0 940.3 -- 37
2020-09-04 23:00:00 23.9 10 Nordeste 18 Nordeste 0 940.2 -- 31
2020-09-04 22:00:00 25.9 0 Calma 6 Sudeste 0 939.7 -- 18
2020-09-04 21:00:00 28.1 4 Este 6 Sudeste 0 939.2 -- 14
2020-09-04 20:00:00 31.6 0 Calma 8 Sur 0 939 -- 12
2020-09-04 19:00:00 31.9 5 Sur 12 Este 0 939.2 -- 12
2020-09-04 18:00:00 32.3 4 Sur 15 Nordeste 0 939.5 -- 11
2020-09-04 17:00:00 32.6 5 Sudeste 17 Noroeste 0 939.8 -- 12
2020-09-04 16:00:00 31.5 7 Noroeste 18 Noroeste 0 940.3 -- 13
2020-09-04 15:00:00 31.2 4 Noroeste 15 Nordeste 0 941.2 -- 13
2020-09-04 14:00:00 30.1 6 Norte 18 Este 0 941.9 -- 14
2020-09-04 13:00:00 29.5 5 Este 18 Este 0 942.5 -- 16
2020-09-04 12:00:00 27.3 5 Norte 15 Este 0 942.8 -- 23
2020-09-04 11:00:00 25 5 Norte 14 Nordeste 0 942.8 -- 30
2020-09-04 10:00:00 21.2 5 Norte 15 Norte 0 942.5 -- 46
2020-09-04 09:00:00 18.5 3 Norte 9 Nordeste 0 942.1 -- 52
2020-09-04 08:00:00 16.2 5 Nordeste 13 Nordeste 0 941.9 -- 59
2020-09-04 07:00:00 16.2 3 Norte 15 Nordeste 0 941.7 -- 58
2020-09-04 06:00:00 16.9 5 Nordeste 14 Nordeste 0 941.5 -- 57
2020-09-04 05:00:00 18.7 6 Este 10 Este 0 941.4 -- 57
2020-09-04 04:00:00 19.3 6 Nordeste 12 Nordeste 0 941.5 -- 53
2020-09-04 03:00:00 19.5 5 Nordeste 19 Nordeste 0 941.7 -- 53
2020-09-04 02:00:00 20.6 2 Norte 14 Nordeste 0 942 -- 46
2020-09-04 01:00:00 21.8 4 Norte 10 Nordeste 0 941.9 -- 41
2020-09-04 00:00:00 23.4 5 Este 28 Nordeste 0 941.9 -- 36
2020-09-03 23:00:00 24.7 10 Nordeste 21 Este 0 941.6 -- 31
2020-09-03 22:00:00 26.4 8 Nordeste 25 Nordeste 0 940.7 -- 26
2020-09-03 21:00:00 28.4 7 Norte 21 Noroeste 0 939.8 -- 19
2020-09-03 20:00:00 30.4 6 Norte 25 Norte 0 939.2 -- 18
2020-09-03 19:00:00 31.2 6 Norte 19 Norte 0 939.1 -- 16
2020-09-03 18:00:00 31.5 6 Nordeste 22 Nordeste 0 939.1 -- 15
2020-09-03 17:00:00 32 6 Nordeste 18 Nordeste 0 939.4 -- 14
2020-09-03 16:00:00 32.1 5 Sudeste 19 Norte 0 939.8 -- 14
2020-09-03 15:00:00 31.3 6 Noroeste 21 Norte 0 940.2 -- 15
2020-09-03 14:00:00 30.8 6 Sudeste 18 Nordeste 0 940.4 -- 19
2020-09-03 13:00:00 29.2 6 Norte 16 Norte 0 940.8 -- 21
2020-09-03 12:00:00 28.3 4 Sudeste 11 Este 0 940.9 -- 26
2020-09-03 11:00:00 25.9 3 Sudeste 8 Este 0 940.9 -- 32
2020-09-03 10:00:00 21.8 4 Sudeste 10 Norte 0 940.4 -- 47
2020-09-03 09:00:00 17 5 Norte 13 Norte 0 940 -- 58
2020-09-03 08:00:00 15.6 4 Norte 14 Nordeste 0 939.5 -- 63
2020-09-03 07:00:00 15.9 3 Norte 10 Norte 0 939 -- 61
2020-09-03 06:00:00 16.5 3 Norte 12 Este 0 938.6 -- 56
2020-09-03 05:00:00 18 3 Nordeste 8 Este 0 938.4 -- 56
2020-09-03 04:00:00 18.3 5 Nordeste 10 Norte 0 938.3 -- 51
2020-09-03 03:00:00 18.4 4 Norte 10 Norte 0 938.2 -- 47
2020-09-03 02:00:00 18.9 5 Nordeste 12 Norte 0 938.3 -- 41
2020-09-03 01:00:00 19.8 5 Nordeste 17 Nordeste 0 938.1 -- 35
2020-09-03 00:00:00 21.9 7 Nordeste 15 Nordeste 0 937.7 -- 26
2020-09-02 23:00:00 23.2 4 Nordeste 9 Nordeste 0 937.5 -- 23
2020-09-02 22:00:00 24.7 4 Nordeste 15 Norte 0 936.9 -- 21
2020-09-02 21:00:00 26.6 4 Norte 17 Noroeste 0 936.3 -- 17
2020-09-02 20:00:00 28.4 7 Noroeste 17 Noroeste 0 935.8 -- 14
2020-09-02 19:00:00 29.3 6 Noroeste 18 Norte 0 935.3 -- 13
2020-09-02 18:00:00 29.7 9 Noroeste 19 Oeste 0 935.1 -- 12
2020-09-02 17:00:00 30.4 5 Oeste 21 Oeste 0 935 -- 12
2020-09-02 16:00:00 29.9 7 Oeste 19 Noroeste 0 935.1 -- 13
2020-09-02 15:00:00 29.3 9 Noroeste 20 Oeste 0 935.3 -- 14
2020-09-02 14:00:00 29.1 7 Norte 17 Noroeste 0 935.5 -- 16
2020-09-02 13:00:00 28.6 4 Nordeste 16 Norte 0 935.7 -- 17
2020-09-02 12:00:00 26 5 Norte 9 Nordeste 0 936 -- 25
2020-09-02 11:00:00 23.7 4 Norte 10 Norte 0 935.6 -- 30
2020-09-02 10:00:00 20.4 4 Norte 12 Nordeste 0 935.1 -- 37
2020-09-02 09:00:00 16.3 3 Norte 8 Norte 0 934.6 -- 46
2020-09-02 08:00:00 14.5 3 Norte 8 Nordeste 0 934.3 -- 50
2020-09-02 07:00:00 14.7 3 Norte 8 Norte 0 933.7 -- 48
2020-09-02 06:00:00 15.9 0 Calma 10 Norte 0 933.3 -- 45
2020-09-02 05:00:00 16.2 0 Calma 10 Nordeste 0 933.2 -- 45
2020-09-02 04:00:00 16.9 3 Norte 6 Norte 0 933 -- 42
2020-09-02 03:00:00 18.6 2 Norte 6 Norte 0 933 -- 38
2020-09-02 02:00:00 20.5 2 Este 5 Este 0 933 -- 34
2020-09-02 01:00:00 22 0 Calma 8 Sudeste 0 933 -- 30
2020-09-02 00:00:00 22.9 6 Sudeste 10 Sudeste 0 933.1 -- 25
2020-09-01 23:00:00 22.8 3 Sudeste 8 Sudeste 0 932.9 -- 20
2020-09-01 22:00:00 23.7 3 Noroeste 9 Nordeste 0 932.8 -- 16
2020-09-01 21:00:00 25.2 3 Norte 12 Noroeste 0 932 -- 14
2020-09-01 20:00:00 27.3 4 Oeste 10 Oeste 0 931.8 -- 12
2020-09-01 19:00:00 27.4 3 Oeste 15 Noroeste 0 931.8 -- 12
2020-09-01 18:00:00 27.8 4 Sudoeste 19 Sudoeste 0 931.9 -- 12
2020-09-01 17:00:00 28.7 5 Oeste 25 Sudoeste 0 932.2 -- 12
2020-09-01 16:00:00 28.7 8 Sur 24 Sudoeste 0 932.6 -- 13
2020-09-01 15:00:00 27.9 6 Sudoeste 16 Sudoeste 0 933.4 -- 14
2020-09-01 14:00:00 26.2 5 Sudoeste 18 Sur 0 933.9 -- 20
2020-09-01 13:00:00 23.5 5 Sur 12 Sur 0 934.3 -- 28
2020-09-01 12:00:00 22 2 Sur 9 Sur 0 934.8 -- 30
2020-09-01 11:00:00 19.3 0 Calma 14 Nordeste 0 935.3 -- 41
2020-09-01 10:00:00 16.7 5 Norte 13 Norte 0 934.8 -- 41
2020-09-01 09:00:00 14.5 4 Norte 11 Nordeste 0 934.8 -- 41
2020-09-01 08:00:00 13 0 Calma 6 Norte 0 934.8 -- 39
2020-09-01 07:00:00 12.7 0 Calma 9 Norte 0 934.8 -- 34
2020-09-01 06:00:00 12.9 0 Calma 7 Nordeste 0 934.6 -- 32
2020-09-01 05:00:00 14.1 3 Norte 7 Nordeste 0 934.8 -- 29
2020-09-01 04:00:00 14.3 0 Calma 7 Norte 0 935.5 -- 27
2020-09-01 03:00:00 15 2 Sur 5 Sudeste 0 935.8 -- 25
2020-09-01 02:00:00 16.4 0 Calma 9 Este 0 936.3 -- 23
2020-09-01 01:00:00 17.1 2 Nordeste 8 Norte 0 936.6 -- 22
2020-09-01 00:00:00 19.1 2 Noroeste 11 Nordeste 0 936.5 -- 19
2020-08-31 23:00:00 21.1 5 Nordeste 10 Nordeste 0 936 -- 16
2020-08-31 22:00:00 22.5 4 Norte 15 Norte 0 935.8 -- 14
2020-08-31 21:00:00 24.5 6 Noroeste 17 Noroeste 0 935.5 -- 13
2020-08-31 20:00:00 26.5 7 Noroeste 19 Noroeste 0 935.3 -- 11
2020-08-31 19:00:00 27.6 5 Oeste 16 Norte 0 935.5 -- 10
2020-08-31 18:00:00 27.6 6 Norte 17 Noroeste 0 935.9 -- 9
2020-08-31 17:00:00 28 6 Sudoeste 16 Sudoeste 0 936.2 -- 9
2020-08-31 16:00:00 28.4 3 Sudoeste 15 Sur 0 936.8 -- 9
2020-08-31 15:00:00 26.8 4 Sur 15 Noroeste 0 937.5 -- 11
2020-08-31 14:00:00 25.9 5 Oeste 14 Sur 0 938.2 -- 12
2020-08-31 13:00:00 24.5 6 Noroeste 14 Noroeste 0 938.7 -- 14
2020-08-31 12:00:00 23.4 5 Noroeste 13 Oeste 0 939 -- 17
2020-08-31 11:00:00 19.6 4 Noroeste 10 Noroeste 0 939 -- 26
2020-08-31 10:00:00 15.6 3 Noroeste 6 Noroeste 0 938.8 -- 32
2020-08-31 09:00:00 11.8 0 Calma 8 Norte 0 938.6 -- 39
2020-08-31 08:00:00 10.6 2 Nordeste 14 Nordeste 0 938.1 -- 45
2020-08-31 07:00:00 11.1 8 Nordeste 17 Nordeste 0 937.4 -- 42
2020-08-31 06:00:00 11.6 3 Nordeste 8 Nordeste 0 937.4 -- 36
2020-08-31 05:00:00 12.4 0 Calma 5 Sudeste 0 937.2 -- 33
2020-08-31 04:00:00 14 3 Noroeste 7 Este 0 937.1 -- 31
2020-08-31 03:00:00 14.7 4 Este 8 Sur 0 937.3 -- 30
2020-08-31 02:00:00 17.6 2 Nordeste 16 Noroeste 0 937.1 -- 25
2020-08-31 01:00:00 18.9 6 Norte 22 Noroeste 0 937 -- 23
2020-08-31 00:00:00 19.6 8 Norte 23 Norte 0 936.8 -- 21
2020-08-30 23:00:00 19.9 8 Norte 19 Noroeste 0 936.3 -- 21
2020-08-30 22:00:00 20.3 5 Norte 17 Norte 0 935.6 -- 21
2020-08-30 21:00:00 21.5 5 Norte 18 Norte 0 934.7 -- 21
2020-08-30 20:00:00 22.6 8 Norte 21 Norte 0 934.2 -- 19
2020-08-30 19:00:00 23.1 7 Noroeste 24 Noroeste 0 933.8 -- 19
2020-08-30 18:00:00 23.6 7 Norte 22 Noroeste 0 933.7 -- 19
2020-08-30 17:00:00 23.6 10 Noroeste 28 Noroeste 0 933.6 -- 19
2020-08-30 16:00:00 24.2 5 Noroeste 23 Norte 0 933.8 -- 18
2020-08-30 15:00:00 22.9 7 Noroeste 22 Noroeste 0 934 -- 22
2020-08-30 14:00:00 23 9 Norte 23 Norte 0 934.4 -- 23
2020-08-30 13:00:00 21.5 8 Norte 24 Norte 0 934.5 -- 25
2020-08-30 12:00:00 20 9 Norte 23 Norte 0 934.9 -- 29
2020-08-30 11:00:00 17.9 8 Noroeste 18 Oeste 0 934.8 -- 39
2020-08-30 10:00:00 16.3 5 Norte 17 Nordeste 0 934.3 -- 46
2020-08-30 09:00:00 13.5 4 Norte 14 Norte 0 934.1 -- 53
2020-08-30 08:00:00 12.2 5 Norte 17 Norte 0 933.5 -- 55
2020-08-30 07:00:00 12.8 3 Noroeste 15 Norte 0 933 -- 49
2020-08-30 06:00:00 13 2 Sur 11 Nordeste 0 932.9 -- 48
2020-08-30 05:00:00 14.7 4 Nordeste 16 Norte 0 932.9 -- 45
2020-08-30 04:00:00 15.6 8 Norte 17 Norte 0 932.8 -- 41
2020-08-30 03:00:00 15.9 6 Norte 14 Norte 0 932.7 -- 38
2020-08-30 02:00:00 16.7 3 Nordeste 24 Norte 0 932.6 -- 34
2020-08-30 01:00:00 17.7 9 Norte 24 Norte 0 931.9 -- 32
2020-08-30 00:00:00 18.3 6 Norte 19 Noroeste 0 931.4 -- 29
2020-08-29 23:00:00 19.7 8 Norte 21 Noroeste 0 930.7 -- 26
2020-08-29 22:00:00 20.7 6 Noroeste 22 Noroeste 0 930 -- 22
2020-08-29 21:00:00 21.7 7 Noroeste 23 Noroeste 0 929.4 -- 21
2020-08-29 20:00:00 22.9 12 Noroeste 27 Noroeste 0 928.9 -- 18
2020-08-29 19:00:00 23.8 9 Noroeste 31 Noroeste 0 928.4 -- 18
2020-08-29 18:00:00 23.9 10 Noroeste 32 Norte 0 928.3 -- 18
2020-08-29 17:00:00 24.4 12 Noroeste 31 Norte 0 927.9 -- 17
2020-08-29 16:00:00 23.7 10 Oeste 30 Noroeste 0 928 -- 22
2020-08-29 15:00:00 23.2 10 Noroeste 28 Oeste 0 928.3 -- 23
2020-08-29 14:00:00 22.9 11 Noroeste 32 Noroeste 0 928.4 -- 24
2020-08-29 13:00:00 22 15 Noroeste 35 Noroeste 0 928.1 -- 26
2020-08-29 12:00:00 21.5 13 Norte 39 Noroeste 0 928 -- 30
2020-08-29 11:00:00 20.1 14 Noroeste 31 Noroeste 0 927.8 -- 35
2020-08-29 10:00:00 18.3 9 Noroeste 24 Noroeste 0 927.7 -- 51
2020-08-29 09:00:00 16.3 3 Oeste 9 Oeste 0 927.4 -- 50
2020-08-29 08:00:00 14.6 0 Calma 6 Oeste 0 927.1 -- 50
2020-08-29 07:00:00 16.1 0 Calma 6 Sur 0 926.7 -- 44
2020-08-29 06:00:00 17.1 2 Sudoeste 9 Sur 0 926.4 -- 40
2020-08-29 05:00:00 18.2 4 Sudoeste 14 Sur 0 926.7 -- 35
2020-08-29 04:00:00 18.8 8 Sur 14 Sudoeste 0 926.9 -- 31
2020-08-29 03:00:00 19.9 6 Sur 15 Sudoeste 0 927.1 -- 27
2020-08-29 02:00:00 20.8 7 Sur 13 Sudeste 0 927.5 -- 22
2020-08-29 01:00:00 22 4 Sudoeste 15 Sudoeste 0 927.7 -- 19
2020-08-29 00:00:00 23.9 8 Sudoeste 18 Sudoeste 0 927.7 -- 17
2020-08-28 23:00:00 25.4 4 Sudoeste 13 Sudoeste 0 928 -- 24
2020-08-28 22:00:00 26.5 5 Sudoeste 21 Sudoeste 0 928 -- 26
2020-08-28 21:00:00 27.7 6 Sudoeste 24 Oeste 0 927.6 -- 26
2020-08-28 20:00:00 29.5 8 Sudoeste 32 Oeste 0 927.3 -- 21
2020-08-28 19:00:00 30.7 9 Sudoeste 35 Sudoeste 0 927.4 -- 25
2020-08-28 18:00:00 31.1 10 Sudoeste 32 Sudoeste 0 927.7 -- 22
2020-08-28 17:00:00 32.2 8 Sudoeste 35 Sudoeste 0 928.1 -- 14
2020-08-28 16:00:00 31.4 9 Sudoeste 35 Sudoeste 0 928.4 -- 18
2020-08-28 15:00:00 33.2 14 Sudoeste 37 Sur 0 928.9 -- 20
2020-08-28 14:00:00 32.5 9 Sudoeste 31 Oeste 0 929.5 -- 24
2020-08-28 13:00:00 31.6 5 Sudoeste 21 Sur 0 930.3 -- 26
2020-08-28 12:00:00 30.2 5 Sudoeste 15 Sudoeste 0 930.9 -- 30
2020-08-28 11:00:00 28.1 5 Sudoeste 13 Oeste 0 931.2 -- 34
2020-08-28 10:00:00 25.8 4 Sur 12 Sur 0 931.3 -- 41
2020-08-28 09:00:00 22.8 5 Sur 9 Sur 0 931.3 -- 46
2020-08-28 08:00:00 21.5 5 Sudeste 10 Sudeste 0 931.3 -- 48
2020-08-28 07:00:00 22.1 4 Sudeste 8 Sudeste 0 931.4 -- 47
2020-08-28 06:00:00 23 6 Sudeste 11 Sudeste 0 931.5 -- 44
2020-08-28 05:00:00 24 5 Sudeste 10 Sur 0 932 -- 41
2020-08-28 04:00:00 25.3 6 Sur 10 Sur 0 932.3 -- 38
2020-08-28 03:00:00 26 5 Sur 10 Sur 0 933 -- 31
2020-08-28 02:00:00 26.8 6 Sur 11 Sur 0 933.4 -- 21
2020-08-28 01:00:00 27.1 6 Sur 15 Sudeste 0 933.7 -- 16
2020-08-28 00:00:00 27.9 7 Sur 14 Sur 0 934 -- 14
2020-08-27 23:00:00 30.5 4 Sudoeste 14 Sudoeste 0 933.9 -- 13
2020-08-27 22:00:00 31.5 9 Sur 22 Sur 0 934.1 -- 12
2020-08-27 21:00:00 33.6 9 Sur 28 Sur 0 933.8 -- 11
2020-08-27 20:00:00 36.1 12 Sur 26 Sudeste 0 933.4 -- 10
2020-08-27 19:00:00 37.2 8 Sur 20 Sur 0 933.8 -- 10
2020-08-27 18:00:00 37.5 5 Sudoeste 21 Sur 0 934.4 -- 9
2020-08-27 17:00:00 38.1 7 Sur 24 Sur 0 935.3 -- 9
2020-08-27 16:00:00 38.1 6 Sudoeste 22 Sudoeste 0 936 -- 8
2020-08-27 15:00:00 37.5 5 Sudoeste 19 Sur 0 936.9 -- 8
2020-08-27 14:00:00 36 5 Oeste 18 Sur 0 937.7 -- 10
2020-08-27 13:00:00 34.9 4 Oeste 19 Sudoeste 0 938.3 -- 11
2020-08-27 12:00:00 33.6 6 Sur 13 Sur 0 938.8 -- 12
2020-08-27 11:00:00 31.6 3 Sur 8 Sur 0 938.9 -- 17
2020-08-27 10:00:00 26.2 2 Nordeste 7 Norte 0 938.8 -- 26
2020-08-27 09:00:00 21.4 3 Norte 7 Norte 0 938.9 -- 33
2020-08-27 08:00:00 19.7 3 Norte 6 Norte 0 938.7 -- 34
2020-08-27 07:00:00 20.4 3 Norte 5 Norte 0 938.6 -- 32
2020-08-27 06:00:00 21.1 3 Norte 6 Norte 0 938.7 -- 30
2020-08-27 05:00:00 22.1 0 Calma 5 Norte 0 938.9 -- 30
2020-08-27 04:00:00 22.9 3 Norte 5 Este 0 939.3 -- 29
2020-08-27 03:00:00 24.5 3 Sudeste 7 Sudeste 0 939.3 -- 22
2020-08-27 02:00:00 25.5 2 Este 5 Este 0 939.4 -- 22
2020-08-27 01:00:00 26.7 2 Este 5 Este 0 939.4 -- 21
2020-08-27 00:00:00 28 3 Este 7 Sudeste 0 939.4 -- 20
2020-08-26 23:00:00 29.6 2 Sur 6 Sudoeste 0 939.2 -- 18
2020-08-26 22:00:00 31 4 Sur 8 Oeste 0 938.6 -- 17
2020-08-26 21:00:00 34 3 Oeste 14 Oeste 0 937.6 -- 13
2020-08-26 20:00:00 36.5 3 Oeste 14 Sudoeste 0 937.2 -- 12
2020-08-26 19:00:00 37.1 4 Sudoeste 15 Sur 0 937.2 -- 11
2020-08-26 18:00:00 37 4 Norte 25 Sur 0 937.4 -- 11
2020-08-26 17:00:00 38.2 4 Oeste 18 Sudoeste 0 937.7 -- 11
2020-08-26 16:00:00 37.4 8 Sudoeste 19 Sudoeste 0 938.1 -- 12
2020-08-26 15:00:00 37.2 6 Sudoeste 22 Sur 0 938.5 -- 12
2020-08-26 14:00:00 36.1 4 Nordeste 19 Sudoeste 0 938.8 -- 15
2020-08-26 13:00:00 35.5 3 Sudeste 14 Sur 0 939.4 -- 16
2020-08-26 12:00:00 33.4 3 Oeste 9 Sudoeste 0 939.5 -- 20
2020-08-26 11:00:00 30.8 4 Sudoeste 9 Sudoeste 0 939.4 -- 25
2020-08-26 10:00:00 26.8 0 Calma 10 Nordeste 0 939.1 -- 31
2020-08-26 09:00:00 21.6 3 Norte 13 Norte 0 939 -- 36
2020-08-26 08:00:00 19.9 5 Norte 10 Norte 0 938.4 -- 40
2020-08-26 07:00:00 21.2 0 Calma 8 Nordeste 0 938.1 -- 37
2020-08-26 06:00:00 21.4 3 Norte 6 Norte 0 937.8 -- 36
2020-08-26 05:00:00 22.4 2 Nordeste 6 Sudeste 0 937.7 -- 32
2020-08-26 04:00:00 23.4 3 Sudeste 6 Este 0 937.7 -- 32
2020-08-26 03:00:00 24.7 3 Este 10 Sudeste 0 937.7 -- 29
2020-08-26 02:00:00 25.9 5 Sudeste 9 Sudeste 0 937.6 -- 28
2020-08-26 01:00:00 26.7 5 Sudeste 10 Sudeste 0 937.5 -- 27
2020-08-26 00:00:00 27.7 4 Sudeste 9 Sudeste 0 937.2 -- 24